createdAt,value
2022-10-17T00:00:01.312Z,0.00
2022-10-17T00:10:00.129Z,0.00
2022-10-17T00:20:00.151Z,0.00
2022-10-17T00:30:01.062Z,0.00
2022-10-17T00:40:01.431Z,0.00
2022-10-17T01:00:01.071Z,0.00
2022-10-17T01:10:01.452Z,0.00
2022-10-17T01:20:00.149Z,0.00
2022-10-17T01:30:01.364Z,0.00
2022-10-17T01:40:00.167Z,0.00
2022-10-17T01:50:01.266Z,0.00
2022-10-17T02:00:01.201Z,0.00
2022-10-17T02:10:01.190Z,0.00
2022-10-17T02:20:00.175Z,0.00
2022-10-17T02:30:00.141Z,0.00
2022-10-17T02:40:01.236Z,0.00
2022-10-17T02:50:00.994Z,0.00
2022-10-17T03:00:01.149Z,0.00
2022-10-17T03:10:00.126Z,0.00
2022-10-17T03:20:00.136Z,0.00
2022-10-17T03:30:00.149Z,0.00
2022-10-17T03:40:00.978Z,0.00
2022-10-17T03:50:00.127Z,0.00
2022-10-17T04:00:01.068Z,0.00
2022-10-17T04:10:01.176Z,0.00
2022-10-17T04:20:01.251Z,0.00
2022-10-17T04:30:00.144Z,0.00
2022-10-17T04:40:01.009Z,0.00
2022-10-17T04:50:00.981Z,0.00
2022-10-17T05:00:00.232Z,0.11
2022-10-17T05:10:01.180Z,1.70
2022-10-17T05:20:00.171Z,10.75
2022-10-17T05:30:00.956Z,57.08
2022-10-17T05:40:00.862Z,68.33
2022-10-17T05:50:01.057Z,151.67
2022-10-17T06:00:00.945Z,255.00
2022-10-17T06:10:01.244Z,717.50
2022-10-17T06:20:02.044Z,862.92
2022-10-17T06:30:01.163Z,1031.67
2022-10-17T06:40:01.275Z,1231.25
2022-10-17T06:50:00.957Z,1176.25
2022-10-17T07:00:01.009Z,738.33
2022-10-17T07:10:01.281Z,1653.33
2022-10-17T07:20:00.168Z,1555.00
2022-10-17T07:30:01.304Z,1440.00
2022-10-17T07:40:01.063Z,1568.75
2022-10-17T07:50:01.252Z,1707.50
2022-10-17T08:00:01.334Z,1723.33
2022-10-17T08:10:01.340Z,1036.67
2022-10-17T08:20:01.042Z,2642.92
2022-10-17T08:30:00.104Z,2047.92
2022-10-17T08:40:01.327Z,2256.25
2022-10-17T08:50:03.210Z,2138.75
2022-10-17T09:00:00.172Z,2507.08
2022-10-17T09:10:01.287Z,2549.58
2022-10-17T09:20:00.182Z,2564.17
2022-10-17T09:30:01.252Z,2732.08
2022-10-17T09:40:00.994Z,3052.92
2022-10-17T09:50:01.262Z,3253.33
2022-10-17T10:00:00.277Z,3834.17
2022-10-17T10:10:01.041Z,5645.00
2022-10-17T10:20:01.279Z,13147.08
2022-10-17T10:30:01.306Z,12971.25
2022-10-17T10:40:02.783Z,19528.75
2022-10-17T10:50:00.984Z,22904.17
2022-10-17T11:00:02.422Z,23122.50
2022-10-17T11:10:01.248Z,23564.58
2022-10-17T11:20:00.165Z,20966.67
2022-10-17T11:30:01.248Z,20168.75
2022-10-17T11:40:01.068Z,16250.83
2022-10-17T12:00:01.061Z,20082.92
2022-10-17T12:10:01.342Z,9239.58
2022-10-17T12:20:01.023Z,22510.00
2022-10-17T12:30:03.743Z,22915.42
2022-10-17T12:40:01.219Z,21362.50
2022-10-17T12:50:00.134Z,17094.58
2022-10-17T13:00:01.569Z,16160.00
2022-10-17T13:10:02.596Z,12478.75
2022-10-17T13:20:00.152Z,15405.42
2022-10-17T13:30:00.145Z,11634.17
2022-10-17T13:40:07.292Z,13836.25
2022-10-17T13:50:01.395Z,17823.33
2022-10-17T14:00:06.043Z,12972.08
2022-10-17T14:10:01.315Z,14852.50
2022-10-17T14:20:16.326Z,15034.58
2022-10-17T14:30:02.810Z,16305.42
2022-10-17T14:40:01.295Z,12545.83
2022-10-17T14:50:01.753Z,2195.83
2022-10-17T15:00:01.829Z,6166.67
2022-10-17T15:10:00.139Z,7440.42
2022-10-17T15:20:01.321Z,5025.00
2022-10-17T15:30:01.004Z,2289.17
2022-10-17T15:40:00.139Z,1252.50
2022-10-17T15:50:02.024Z,684.17
2022-10-17T16:00:01.478Z,341.67
2022-10-17T16:10:02.337Z,114.17
2022-10-17T16:20:01.709Z,39.58
2022-10-17T16:30:00.143Z,7.24
2022-10-17T16:40:00.181Z,1.13
2022-10-17T16:50:01.019Z,0.11
2022-10-17T17:00:01.438Z,0.00
2022-10-17T17:10:02.003Z,0.00
2022-10-17T17:20:01.092Z,0.00
2022-10-17T17:30:01.377Z,0.00
2022-10-17T17:40:01.643Z,0.00
2022-10-17T17:50:03.002Z,0.00
2022-10-17T18:00:01.108Z,0.00
2022-10-17T18:10:01.340Z,0.11
2022-10-17T18:20:01.327Z,0.11
2022-10-17T18:30:00.145Z,0.11
2022-10-17T18:40:01.721Z,0.00
2022-10-17T18:50:01.422Z,0.00
2022-10-17T19:00:01.032Z,0.00
2022-10-17T19:10:01.417Z,0.00
2022-10-17T19:20:01.102Z,0.00
2022-10-17T19:30:04.579Z,0.00
2022-10-17T19:40:01.013Z,0.00
2022-10-17T19:50:01.185Z,0.00
2022-10-17T20:00:02.744Z,0.00
2022-10-17T20:10:01.051Z,0.00
2022-10-17T20:20:02.298Z,0.00
2022-10-17T20:30:00.996Z,0.00
2022-10-17T20:40:22.940Z,0.00
2022-10-17T20:50:01.067Z,0.00
2022-10-17T21:00:01.626Z,0.00
2022-10-17T21:10:12.298Z,0.00
2022-10-17T21:20:01.283Z,0.00
2022-10-17T21:30:01.204Z,0.00
2022-10-17T21:40:01.071Z,0.00
2022-10-17T21:50:01.228Z,0.00
2022-10-17T22:00:00.173Z,0.00
2022-10-17T22:10:01.042Z,0.00
2022-10-17T22:20:00.974Z,0.00
2022-10-17T22:30:01.066Z,0.00
2022-10-17T22:40:01.032Z,0.00
2022-10-17T22:50:01.048Z,0.00
2022-10-17T23:00:01.066Z,0.00
2022-10-17T23:10:01.498Z,0.00
2022-10-17T23:20:00.148Z,0.00
2022-10-17T23:30:00.147Z,0.00
2022-10-17T23:40:01.265Z,0.00
2022-10-17T23:50:00.118Z,0.00
